KDNS/DNS METAR and TAF weather

Enter ICAO airport designator
Station Type Date Time Source
KDNS METAR 2022/12/05 15:35 UTC NOAA

KDNS 051535Z AUTO 03007KT 10SM CLR 02/M06 A2982 RMK AO2


Station Type Date Time Source
KDNS Decoded METAR 2022/12/05 15:35 UTC NOAA

Denison, IA, United States (KDNS) 41-59N 095-23W
Dec 05, 2022 - 10:35 AM EST / 2022.12.05 1535 UTC
Wind: from the NNE (030 degrees) at 8 MPH (7 KT):0
Visibility: 10 mile(s):0
Sky conditions: clear
Temperature: 35 F (2 C)
Windchill: 28 F (-2 C):1
Dew Point: 21 F (-6 C)
Relative Humidity: 55%
Pressure (altimeter): 29.82 in. Hg (1009 hPa)
ob: KDNS 051535Z AUTO 03007KT 10SM CLR 02/M06 A2982 RMK AO2
cycle: 15

Station Type Date Time Source
KDNS TAF UTC NOAA

Error!

Example: see airport list